sensor_id;sensor_type;location;lat;lon;timestamp;temperature;humidity
4518;DHT22;2271;49.464;11.070;2022-10-16T00:01:37;16.20;99.90
4518;DHT22;2271;49.464;11.070;2022-10-16T00:04:03;16.20;99.90
4518;DHT22;2271;49.464;11.070;2022-10-16T00:06:30;16.20;99.90
4518;DHT22;2271;49.464;11.070;2022-10-16T00:08:56;16.20;99.90
4518;DHT22;2271;49.464;11.070;2022-10-16T00:11:25;16.20;99.90
4518;DHT22;2271;49.464;11.070;2022-10-16T00:13:55;16.10;99.90
4518;DHT22;2271;49.464;11.070;2022-10-16T00:16:21;16.10;99.90
4518;DHT22;2271;49.464;11.070;2022-10-16T00:18:47;16.10;99.90
4518;DHT22;2271;49.464;11.070;2022-10-16T00:21:17;16.10;99.90
4518;DHT22;2271;49.464;11.070;2022-10-16T00:23:43;16.20;99.90
4518;DHT22;2271;49.464;11.070;2022-10-16T00:26:11;16.10;99.90
4518;DHT22;2271;49.464;11.070;2022-10-16T00:28:37;16.20;99.90
4518;DHT22;2271;49.464;11.070;2022-10-16T00:31:08;16.20;99.90
4518;DHT22;2271;49.464;11.070;2022-10-16T00:33:35;16.10;99.90
4518;DHT22;2271;49.464;11.070;2022-10-16T00:36:02;16.10;99.90
4518;DHT22;2271;49.464;11.070;2022-10-16T00:38:28;16.10;99.90
4518;DHT22;2271;49.464;11.070;2022-10-16T00:40:54;16.20;99.90
4518;DHT22;2271;49.464;11.070;2022-10-16T00:46:02;16.10;99.90
4518;DHT22;2271;49.464;11.070;2022-10-16T00:48:28;16.10;99.90
4518;DHT22;2271;49.464;11.070;2022-10-16T00:50:55;16.10;99.90
4518;DHT22;2271;49.464;11.070;2022-10-16T00:53:22;16.10;99.90
4518;DHT22;2271;49.464;11.070;2022-10-16T00:55:48;16.10;99.90
4518;DHT22;2271;49.464;11.070;2022-10-16T00:58:14;16.10;99.90
4518;DHT22;2271;49.464;11.070;2022-10-16T01:00:39;16.10;99.90
4518;DHT22;2271;49.464;11.070;2022-10-16T01:03:30;16.10;99.90
4518;DHT22;2271;49.464;11.070;2022-10-16T01:14:53;16.00;99.90
4518;DHT22;2271;49.464;11.070;2022-10-16T01:22:37;15.90;99.90
4518;DHT22;2271;49.464;11.070;2022-10-16T01:25:07;16.00;99.90
4518;DHT22;2271;49.464;11.070;2022-10-16T01:27:36;16.00;99.90
4518;DHT22;2271;49.464;11.070;2022-10-16T01:30:26;16.00;99.90
4518;DHT22;2271;49.464;11.070;2022-10-16T01:32:56;15.90;99.90
4518;DHT22;2271;49.464;11.070;2022-10-16T01:35:25;16.00;99.90
4518;DHT22;2271;49.464;11.070;2022-10-16T01:40:36;16.00;99.90
4518;DHT22;2271;49.464;11.070;2022-10-16T01:43:10;16.00;99.90
4518;DHT22;2271;49.464;11.070;2022-10-16T01:45:38;16.00;99.90
4518;DHT22;2271;49.464;11.070;2022-10-16T01:48:05;15.90;99.90
4518;DHT22;2271;49.464;11.070;2022-10-16T01:50:36;15.90;99.90
4518;DHT22;2271;49.464;11.070;2022-10-16T01:53:04;15.90;99.90
4518;DHT22;2271;49.464;11.070;2022-10-16T01:55:36;15.90;99.90
4518;DHT22;2271;49.464;11.070;2022-10-16T01:58:05;15.90;99.90
4518;DHT22;2271;49.464;11.070;2022-10-16T02:00:33;15.90;99.90
4518;DHT22;2271;49.464;11.070;2022-10-16T02:03:01;15.90;99.90
4518;DHT22;2271;49.464;11.070;2022-10-16T02:05:36;15.90;99.90
4518;DHT22;2271;49.464;11.070;2022-10-16T02:08:04;15.90;99.90
4518;DHT22;2271;49.464;11.070;2022-10-16T02:10:29;16.00;99.90
4518;DHT22;2271;49.464;11.070;2022-10-16T02:13:15;15.90;99.90
4518;DHT22;2271;49.464;11.070;2022-10-16T02:15:42;16.00;99.90
4518;DHT22;2271;49.464;11.070;2022-10-16T02:18:08;15.90;99.90
4518;DHT22;2271;49.464;11.070;2022-10-16T02:25:56;15.90;99.90
4518;DHT22;2271;49.464;11.070;2022-10-16T02:28:40;15.90;99.90
4518;DHT22;2271;49.464;11.070;2022-10-16T02:31:11;15.90;99.90
4518;DHT22;2271;49.464;11.070;2022-10-16T02:33:39;15.90;99.90
4518;DHT22;2271;49.464;11.070;2022-10-16T02:36:06;15.90;99.90
4518;DHT22;2271;49.464;11.070;2022-10-16T02:38:32;15.90;99.90
4518;DHT22;2271;49.464;11.070;2022-10-16T02:40:58;15.90;99.90
4518;DHT22;2271;49.464;11.070;2022-10-16T02:43:25;15.90;99.90
4518;DHT22;2271;49.464;11.070;2022-10-16T02:45:51;15.90;99.90
4518;DHT22;2271;49.464;11.070;2022-10-16T02:48:17;15.90;99.90
4518;DHT22;2271;49.464;11.070;2022-10-16T02:50:42;15.90;99.90
4518;DHT22;2271;49.464;11.070;2022-10-16T02:53:08;15.90;99.90
4518;DHT22;2271;49.464;11.070;2022-10-16T02:55:33;15.90;99.90
4518;DHT22;2271;49.464;11.070;2022-10-16T02:57:59;15.90;99.90
4518;DHT22;2271;49.464;11.070;2022-10-16T03:00:24;15.90;99.90
4518;DHT22;2271;49.464;11.070;2022-10-16T03:02:50;15.90;99.90
4518;DHT22;2271;49.464;11.070;2022-10-16T03:05:16;15.90;99.90
4518;DHT22;2271;49.464;11.070;2022-10-16T03:07:42;15.90;99.90
4518;DHT22;2271;49.464;11.070;2022-10-16T03:10:08;15.80;99.90
4518;DHT22;2271;49.464;11.070;2022-10-16T03:12:33;15.80;99.90
4518;DHT22;2271;49.464;11.070;2022-10-16T03:14:59;15.90;99.90
4518;DHT22;2271;49.464;11.070;2022-10-16T03:17:25;15.90;99.90
4518;DHT22;2271;49.464;11.070;2022-10-16T03:19:51;15.90;99.90
4518;DHT22;2271;49.464;11.070;2022-10-16T03:22:16;15.80;99.90
4518;DHT22;2271;49.464;11.070;2022-10-16T03:24:42;15.90;99.90
4518;DHT22;2271;49.464;11.070;2022-10-16T03:27:08;15.80;99.90
4518;DHT22;2271;49.464;11.070;2022-10-16T03:29:33;15.80;99.90
4518;DHT22;2271;49.464;11.070;2022-10-16T03:31:59;15.80;99.90
4518;DHT22;2271;49.464;11.070;2022-10-16T03:34:25;15.80;99.90
4518;DHT22;2271;49.464;11.070;2022-10-16T03:36:51;15.80;99.90
4518;DHT22;2271;49.464;11.070;2022-10-16T03:39:17;15.80;99.90
4518;DHT22;2271;49.464;11.070;2022-10-16T03:41:42;15.80;99.90
4518;DHT22;2271;49.464;11.070;2022-10-16T03:44:08;15.80;99.90
4518;DHT22;2271;49.464;11.070;2022-10-16T03:46:34;15.80;99.90
4518;DHT22;2271;49.464;11.070;2022-10-16T03:48:59;15.80;99.90
4518;DHT22;2271;49.464;11.070;2022-10-16T03:51:25;15.80;99.90
4518;DHT22;2271;49.464;11.070;2022-10-16T03:53:50;15.80;99.90
4518;DHT22;2271;49.464;11.070;2022-10-16T03:56:16;15.80;99.90
4518;DHT22;2271;49.464;11.070;2022-10-16T03:58:42;15.80;99.90
4518;DHT22;2271;49.464;11.070;2022-10-16T04:01:07;15.70;99.90
4518;DHT22;2271;49.464;11.070;2022-10-16T04:03:33;15.70;99.90
4518;DHT22;2271;49.464;11.070;2022-10-16T04:05:59;15.70;99.90
4518;DHT22;2271;49.464;11.070;2022-10-16T04:08:24;15.70;99.90
4518;DHT22;2271;49.464;11.070;2022-10-16T04:10:50;15.70;99.90
4518;DHT22;2271;49.464;11.070;2022-10-16T04:13:16;15.70;99.90
4518;DHT22;2271;49.464;11.070;2022-10-16T04:15:42;15.70;99.90
4518;DHT22;2271;49.464;11.070;2022-10-16T04:18:07;15.70;99.90
4518;DHT22;2271;49.464;11.070;2022-10-16T04:20:34;15.70;99.90
4518;DHT22;2271;49.464;11.070;2022-10-16T04:22:59;15.70;99.90
4518;DHT22;2271;49.464;11.070;2022-10-16T04:25:25;15.70;99.90
4518;DHT22;2271;49.464;11.070;2022-10-16T04:27:53;15.80;99.90
4518;DHT22;2271;49.464;11.070;2022-10-16T04:30:19;15.80;99.90
4518;DHT22;2271;49.464;11.070;2022-10-16T04:32:48;15.70;99.90
4518;DHT22;2271;49.464;11.070;2022-10-16T04:35:14;15.70;99.90
4518;DHT22;2271;49.464;11.070;2022-10-16T04:37:40;15.70;99.90
4518;DHT22;2271;49.464;11.070;2022-10-16T04:40:06;15.70;99.90
4518;DHT22;2271;49.464;11.070;2022-10-16T04:42:31;15.70;99.90
4518;DHT22;2271;49.464;11.070;2022-10-16T04:44:57;15.70;99.90
4518;DHT22;2271;49.464;11.070;2022-10-16T04:47:23;15.70;99.90
4518;DHT22;2271;49.464;11.070;2022-10-16T04:49:48;15.70;99.90
4518;DHT22;2271;49.464;11.070;2022-10-16T04:52:14;15.80;99.90
4518;DHT22;2271;49.464;11.070;2022-10-16T04:54:40;15.70;99.90
4518;DHT22;2271;49.464;11.070;2022-10-16T04:57:06;15.80;99.90
4518;DHT22;2271;49.464;11.070;2022-10-16T04:59:31;15.70;99.90
4518;DHT22;2271;49.464;11.070;2022-10-16T05:01:57;15.70;99.90
4518;DHT22;2271;49.464;11.070;2022-10-16T05:04:23;15.70;99.90
4518;DHT22;2271;49.464;11.070;2022-10-16T05:06:49;15.70;99.90
4518;DHT22;2271;49.464;11.070;2022-10-16T05:09:14;15.70;99.90
4518;DHT22;2271;49.464;11.070;2022-10-16T05:11:40;15.70;99.90
4518;DHT22;2271;49.464;11.070;2022-10-16T05:14:05;15.70;99.90
4518;DHT22;2271;49.464;11.070;2022-10-16T05:16:31;15.70;99.90
4518;DHT22;2271;49.464;11.070;2022-10-16T05:18:57;15.70;99.90
4518;DHT22;2271;49.464;11.070;2022-10-16T05:21:22;15.70;99.90
4518;DHT22;2271;49.464;11.070;2022-10-16T05:23:48;15.70;99.90
4518;DHT22;2271;49.464;11.070;2022-10-16T05:26:14;15.70;99.90
4518;DHT22;2271;49.464;11.070;2022-10-16T05:28:40;15.70;99.90
4518;DHT22;2271;49.464;11.070;2022-10-16T05:31:06;15.70;99.90
4518;DHT22;2271;49.464;11.070;2022-10-16T05:33:32;15.60;99.90
4518;DHT22;2271;49.464;11.070;2022-10-16T05:36:05;15.70;99.90
4518;DHT22;2271;49.464;11.070;2022-10-16T05:38:32;15.60;99.90
4518;DHT22;2271;49.464;11.070;2022-10-16T05:40:58;15.60;99.90
4518;DHT22;2271;49.464;11.070;2022-10-16T05:43:23;15.60;99.90
4518;DHT22;2271;49.464;11.070;2022-10-16T05:48:25;15.70;99.90
4518;DHT22;2271;49.464;11.070;2022-10-16T05:51:03;15.70;99.90
4518;DHT22;2271;49.464;11.070;2022-10-16T05:53:31;15.70;99.90
4518;DHT22;2271;49.464;11.070;2022-10-16T05:55:57;15.70;99.90
4518;DHT22;2271;49.464;11.070;2022-10-16T05:58:24;15.70;99.90
4518;DHT22;2271;49.464;11.070;2022-10-16T06:00:55;15.70;99.90
4518;DHT22;2271;49.464;11.070;2022-10-16T06:03:21;15.70;99.90
4518;DHT22;2271;49.464;11.070;2022-10-16T06:05:46;15.70;99.90
4518;DHT22;2271;49.464;11.070;2022-10-16T06:08:12;15.70;99.90
4518;DHT22;2271;49.464;11.070;2022-10-16T06:10:37;15.80;99.90
4518;DHT22;2271;49.464;11.070;2022-10-16T06:13:03;15.90;99.90
4518;DHT22;2271;49.464;11.070;2022-10-16T06:15:29;16.10;99.90
4518;DHT22;2271;49.464;11.070;2022-10-16T06:17:54;16.30;99.90
4518;DHT22;2271;49.464;11.070;2022-10-16T06:20:20;16.20;99.90
4518;DHT22;2271;49.464;11.070;2022-10-16T06:22:46;16.10;99.90
4518;DHT22;2271;49.464;11.070;2022-10-16T06:25:11;16.10;99.90
4518;DHT22;2271;49.464;11.070;2022-10-16T06:27:39;16.10;99.90
4518;DHT22;2271;49.464;11.070;2022-10-16T06:30:06;16.10;99.90
4518;DHT22;2271;49.464;11.070;2022-10-16T06:32:32;16.10;99.90
4518;DHT22;2271;49.464;11.070;2022-10-16T06:34:57;16.10;99.90
4518;DHT22;2271;49.464;11.070;2022-10-16T06:37:23;16.20;99.90
4518;DHT22;2271;49.464;11.070;2022-10-16T06:39:50;16.30;99.90
4518;DHT22;2271;49.464;11.070;2022-10-16T06:42:18;16.30;99.90
4518;DHT22;2271;49.464;11.070;2022-10-16T06:44:43;16.30;99.90
4518;DHT22;2271;49.464;11.070;2022-10-16T06:47:09;16.40;99.90
4518;DHT22;2271;49.464;11.070;2022-10-16T06:49:35;16.40;99.90
4518;DHT22;2271;49.464;11.070;2022-10-16T06:52:00;16.40;99.90
4518;DHT22;2271;49.464;11.070;2022-10-16T06:54:27;16.40;99.90
4518;DHT22;2271;49.464;11.070;2022-10-16T06:56:53;16.30;99.90
4518;DHT22;2271;49.464;11.070;2022-10-16T06:59:20;16.30;99.90
4518;DHT22;2271;49.464;11.070;2022-10-16T07:01:46;16.30;99.90
4518;DHT22;2271;49.464;11.070;2022-10-16T07:04:12;16.20;99.90
4518;DHT22;2271;49.464;11.070;2022-10-16T07:06:37;16.20;99.90
4518;DHT22;2271;49.464;11.070;2022-10-16T07:09:05;16.20;99.90
4518;DHT22;2271;49.464;11.070;2022-10-16T07:11:32;16.20;99.90
4518;DHT22;2271;49.464;11.070;2022-10-16T07:13:58;16.20;99.90
4518;DHT22;2271;49.464;11.070;2022-10-16T07:16:28;16.20;99.90
4518;DHT22;2271;49.464;11.070;2022-10-16T07:18:56;16.20;99.90
4518;DHT22;2271;49.464;11.070;2022-10-16T07:21:25;16.20;99.90
4518;DHT22;2271;49.464;11.070;2022-10-16T07:23:52;16.20;99.90
4518;DHT22;2271;49.464;11.070;2022-10-16T07:26:18;16.20;99.90
4518;DHT22;2271;49.464;11.070;2022-10-16T07:28:44;16.20;99.90
4518;DHT22;2271;49.464;11.070;2022-10-16T07:31:11;16.20;99.90
4518;DHT22;2271;49.464;11.070;2022-10-16T07:33:39;16.20;99.90
4518;DHT22;2271;49.464;11.070;2022-10-16T07:36:06;16.30;99.90
4518;DHT22;2271;49.464;11.070;2022-10-16T07:38:31;16.20;99.90
4518;DHT22;2271;49.464;11.070;2022-10-16T07:41:01;16.30;99.90
4518;DHT22;2271;49.464;11.070;2022-10-16T07:43:28;16.20;99.90
4518;DHT22;2271;49.464;11.070;2022-10-16T07:45:53;16.30;99.90
4518;DHT22;2271;49.464;11.070;2022-10-16T07:48:20;16.30;99.90
4518;DHT22;2271;49.464;11.070;2022-10-16T07:50:46;16.20;99.90
4518;DHT22;2271;49.464;11.070;2022-10-16T07:53:11;16.20;99.90
4518;DHT22;2271;49.464;11.070;2022-10-16T07:55:38;16.30;99.90
4518;DHT22;2271;49.464;11.070;2022-10-16T07:58:04;16.30;99.90
4518;DHT22;2271;49.464;11.070;2022-10-16T08:00:30;16.30;99.90
4518;DHT22;2271;49.464;11.070;2022-10-16T08:02:57;16.30;99.90
4518;DHT22;2271;49.464;11.070;2022-10-16T08:05:29;16.30;99.90
4518;DHT22;2271;49.464;11.070;2022-10-16T08:07:56;16.40;99.90
4518;DHT22;2271;49.464;11.070;2022-10-16T08:10:23;16.40;99.90
4518;DHT22;2271;49.464;11.070;2022-10-16T08:12:50;16.40;99.90
4518;DHT22;2271;49.464;11.070;2022-10-16T08:15:16;16.50;99.90
4518;DHT22;2271;49.464;11.070;2022-10-16T08:17:42;16.40;99.90
4518;DHT22;2271;49.464;11.070;2022-10-16T08:20:08;16.50;99.90
4518;DHT22;2271;49.464;11.070;2022-10-16T08:22:34;16.40;99.90
4518;DHT22;2271;49.464;11.070;2022-10-16T08:24:59;16.40;99.90
4518;DHT22;2271;49.464;11.070;2022-10-16T08:27:25;16.40;99.90
4518;DHT22;2271;49.464;11.070;2022-10-16T08:29:50;16.40;99.90
4518;DHT22;2271;49.464;11.070;2022-10-16T08:32:16;16.50;99.90
4518;DHT22;2271;49.464;11.070;2022-10-16T08:34:42;16.50;99.90
4518;DHT22;2271;49.464;11.070;2022-10-16T08:37:07;16.50;99.90
4518;DHT22;2271;49.464;11.070;2022-10-16T08:39:36;16.60;99.90
4518;DHT22;2271;49.464;11.070;2022-10-16T08:42:15;16.60;99.90
4518;DHT22;2271;49.464;11.070;2022-10-16T08:47:26;16.80;99.90
4518;DHT22;2271;49.464;11.070;2022-10-16T08:50:10;16.80;99.90
4518;DHT22;2271;49.464;11.070;2022-10-16T08:52:39;16.90;99.90
4518;DHT22;2271;49.464;11.070;2022-10-16T08:55:06;16.90;99.90
4518;DHT22;2271;49.464;11.070;2022-10-16T08:57:32;17.00;99.90
4518;DHT22;2271;49.464;11.070;2022-10-16T09:00:11;17.10;99.90
4518;DHT22;2271;49.464;11.070;2022-10-16T09:16:10;17.50;99.90
4518;DHT22;2271;49.464;11.070;2022-10-16T09:21:32;17.60;99.90
4518;DHT22;2271;49.464;11.070;2022-10-16T09:26:42;17.80;99.90
4518;DHT22;2271;49.464;11.070;2022-10-16T09:29:16;17.90;99.90
4518;DHT22;2271;49.464;11.070;2022-10-16T09:31:42;17.90;99.90
4518;DHT22;2271;49.464;11.070;2022-10-16T09:34:32;17.90;99.90
4518;DHT22;2271;49.464;11.070;2022-10-16T09:36:59;17.80;99.90
4518;DHT22;2271;49.464;11.070;2022-10-16T09:39:28;17.70;99.90
4518;DHT22;2271;49.464;11.070;2022-10-16T09:41:55;17.70;99.90
4518;DHT22;2271;49.464;11.070;2022-10-16T09:44:24;17.60;99.90
4518;DHT22;2271;49.464;11.070;2022-10-16T09:47:02;17.50;99.90
4518;DHT22;2271;49.464;11.070;2022-10-16T09:49:27;17.40;99.90
4518;DHT22;2271;49.464;11.070;2022-10-16T09:52:11;17.40;99.90
4518;DHT22;2271;49.464;11.070;2022-10-16T09:54:37;17.30;99.90
4518;DHT22;2271;49.464;11.070;2022-10-16T09:57:07;17.30;99.90
4518;DHT22;2271;49.464;11.070;2022-10-16T09:59:33;17.30;99.90
4518;DHT22;2271;49.464;11.070;2022-10-16T10:02:03;17.30;99.90
4518;DHT22;2271;49.464;11.070;2022-10-16T10:04:40;17.30;99.90
4518;DHT22;2271;49.464;11.070;2022-10-16T10:07:07;17.30;99.90
4518;DHT22;2271;49.464;11.070;2022-10-16T10:09:44;17.30;99.90
4518;DHT22;2271;49.464;11.070;2022-10-16T10:12:27;17.40;99.90
4518;DHT22;2271;49.464;11.070;2022-10-16T10:15:02;17.50;99.90
4518;DHT22;2271;49.464;11.070;2022-10-16T10:17:29;17.60;99.90
4518;DHT22;2271;49.464;11.070;2022-10-16T10:19:59;17.70;99.90
4518;DHT22;2271;49.464;11.070;2022-10-16T10:22:44;17.80;99.90
4518;DHT22;2271;49.464;11.070;2022-10-16T10:30:56;18.10;99.90
4518;DHT22;2271;49.464;11.070;2022-10-16T10:33:34;18.20;99.90
4518;DHT22;2271;49.464;11.070;2022-10-16T10:36:14;18.30;99.90
4518;DHT22;2271;49.464;11.070;2022-10-16T10:39:05;18.30;99.90
4518;DHT22;2271;49.464;11.070;2022-10-16T10:47:17;18.40;99.90
4518;DHT22;2271;49.464;11.070;2022-10-16T10:52:45;18.60;99.90
4518;DHT22;2271;49.464;11.070;2022-10-16T10:55:43;18.60;99.90
4518;DHT22;2271;49.464;11.070;2022-10-16T11:06:58;18.80;99.90
4518;DHT22;2271;49.464;11.070;2022-10-16T11:09:40;18.80;99.90
4518;DHT22;2271;49.464;11.070;2022-10-16T11:12:23;18.70;99.90
4518;DHT22;2271;49.464;11.070;2022-10-16T11:20:42;18.80;99.90
4518;DHT22;2271;49.464;11.070;2022-10-16T11:25:49;18.90;99.90
4518;DHT22;2271;49.464;11.070;2022-10-16T11:31:39;19.00;99.90
4518;DHT22;2271;49.464;11.070;2022-10-16T11:34:30;19.10;99.90
4518;DHT22;2271;49.464;11.070;2022-10-16T11:37:09;19.20;99.90
4518;DHT22;2271;49.464;11.070;2022-10-16T11:39:38;19.20;99.90
4518;DHT22;2271;49.464;11.070;2022-10-16T11:42:16;19.20;99.90
4518;DHT22;2271;49.464;11.070;2022-10-16T11:44:57;19.20;99.90
4518;DHT22;2271;49.464;11.070;2022-10-16T11:47:43;19.30;99.90
4518;DHT22;2271;49.464;11.070;2022-10-16T11:55:40;19.70;99.90
4518;DHT22;2271;49.464;11.070;2022-10-16T11:58:09;19.80;99.90
4518;DHT22;2271;49.464;11.070;2022-10-16T12:06:22;19.90;99.90
4518;DHT22;2271;49.464;11.070;2022-10-16T12:08:50;20.00;99.90
4518;DHT22;2271;49.464;11.070;2022-10-16T12:16:30;20.50;99.90
4518;DHT22;2271;49.464;11.070;2022-10-16T12:19:14;20.50;99.90
4518;DHT22;2271;49.464;11.070;2022-10-16T12:21:41;20.50;99.90
4518;DHT22;2271;49.464;11.070;2022-10-16T12:24:39;20.50;99.90
4518;DHT22;2271;49.464;11.070;2022-10-16T12:27:30;20.70;99.90
4518;DHT22;2271;49.464;11.070;2022-10-16T12:29:59;21.00;99.90
4518;DHT22;2271;49.464;11.070;2022-10-16T12:32:33;21.20;99.90
4518;DHT22;2271;49.464;11.070;2022-10-16T12:35:03;21.40;99.90
4518;DHT22;2271;49.464;11.070;2022-10-16T12:37:36;21.50;99.90
4518;DHT22;2271;49.464;11.070;2022-10-16T12:40:15;21.50;99.90
4518;DHT22;2271;49.464;11.070;2022-10-16T12:42:41;21.40;99.90
4518;DHT22;2271;49.464;11.070;2022-10-16T12:47:55;21.20;99.90
4518;DHT22;2271;49.464;11.070;2022-10-16T12:53:00;21.00;99.90
4518;DHT22;2271;49.464;11.070;2022-10-16T12:55:26;21.00;99.90
4518;DHT22;2271;49.464;11.070;2022-10-16T13:00:50;20.80;99.90
4518;DHT22;2271;49.464;11.070;2022-10-16T13:03:31;20.70;99.90
4518;DHT22;2271;49.464;11.070;2022-10-16T13:09:14;20.80;99.90
4518;DHT22;2271;49.464;11.070;2022-10-16T13:20:20;20.80;99.90
4518;DHT22;2271;49.464;11.070;2022-10-16T13:23:13;21.00;99.90
4518;DHT22;2271;49.464;11.070;2022-10-16T13:25:46;21.30;99.90
4518;DHT22;2271;49.464;11.070;2022-10-16T13:28:17;21.50;99.90
4518;DHT22;2271;49.464;11.070;2022-10-16T13:30:51;21.60;99.90
4518;DHT22;2271;49.464;11.070;2022-10-16T13:35:55;21.50;99.90
4518;DHT22;2271;49.464;11.070;2022-10-16T13:38:23;21.40;99.90
4518;DHT22;2271;49.464;11.070;2022-10-16T13:40:55;21.20;99.90
4518;DHT22;2271;49.464;11.070;2022-10-16T13:46:13;20.90;99.90
4518;DHT22;2271;49.464;11.070;2022-10-16T13:48:39;21.00;99.90
4518;DHT22;2271;49.464;11.070;2022-10-16T13:53:34;21.40;99.90
4518;DHT22;2271;49.464;11.070;2022-10-16T13:56:06;21.50;99.90
4518;DHT22;2271;49.464;11.070;2022-10-16T13:58:32;21.60;99.90
4518;DHT22;2271;49.464;11.070;2022-10-16T14:01:03;21.70;99.90
4518;DHT22;2271;49.464;11.070;2022-10-16T14:03:31;21.80;99.90
4518;DHT22;2271;49.464;11.070;2022-10-16T14:06:04;21.80;99.90
4518;DHT22;2271;49.464;11.070;2022-10-16T14:08:31;21.90;99.90
4518;DHT22;2271;49.464;11.070;2022-10-16T14:10:59;21.90;99.90
4518;DHT22;2271;49.464;11.070;2022-10-16T14:15:56;21.80;99.90
4518;DHT22;2271;49.464;11.070;2022-10-16T14:18:25;21.80;99.90
4518;DHT22;2271;49.464;11.070;2022-10-16T14:20:52;21.80;99.90
4518;DHT22;2271;49.464;11.070;2022-10-16T14:25:46;21.80;99.90
4518;DHT22;2271;49.464;11.070;2022-10-16T14:28:22;21.80;99.90
4518;DHT22;2271;49.464;11.070;2022-10-16T14:30:51;21.80;99.90
4518;DHT22;2271;49.464;11.070;2022-10-16T14:38:30;21.60;99.90
4518;DHT22;2271;49.464;11.070;2022-10-16T14:40:58;21.40;99.90
4518;DHT22;2271;49.464;11.070;2022-10-16T14:43:34;21.30;99.90
4518;DHT22;2271;49.464;11.070;2022-10-16T14:46:11;21.10;99.90
4518;DHT22;2271;49.464;11.070;2022-10-16T14:48:46;21.00;99.90
4518;DHT22;2271;49.464;11.070;2022-10-16T14:51:16;20.90;99.90
4518;DHT22;2271;49.464;11.070;2022-10-16T14:53:42;20.90;99.90
4518;DHT22;2271;49.464;11.070;2022-10-16T14:56:29;20.80;99.90
4518;DHT22;2271;49.464;11.070;2022-10-16T14:58:55;20.70;99.90
4518;DHT22;2271;49.464;11.070;2022-10-16T15:01:21;20.70;99.90
4518;DHT22;2271;49.464;11.070;2022-10-16T15:03:47;20.60;99.90
4518;DHT22;2271;49.464;11.070;2022-10-16T15:06:15;20.70;99.90
4518;DHT22;2271;49.464;11.070;2022-10-16T15:08:41;20.60;99.90
4518;DHT22;2271;49.464;11.070;2022-10-16T15:11:15;20.50;99.90
4518;DHT22;2271;49.464;11.070;2022-10-16T15:13:42;20.50;99.90
4518;DHT22;2271;49.464;11.070;2022-10-16T15:16:12;20.50;99.90
4518;DHT22;2271;49.464;11.070;2022-10-16T15:18:38;20.50;99.90
4518;DHT22;2271;49.464;11.070;2022-10-16T15:21:04;20.50;99.90
4518;DHT22;2271;49.464;11.070;2022-10-16T15:23:30;20.50;99.90
4518;DHT22;2271;49.464;11.070;2022-10-16T15:25:56;20.50;99.90
4518;DHT22;2271;49.464;11.070;2022-10-16T15:28:23;20.50;99.90
4518;DHT22;2271;49.464;11.070;2022-10-16T15:30:50;20.50;99.90
4518;DHT22;2271;49.464;11.070;2022-10-16T15:33:22;20.50;99.90
4518;DHT22;2271;49.464;11.070;2022-10-16T15:35:52;20.40;99.90
4518;DHT22;2271;49.464;11.070;2022-10-16T15:38:19;20.40;99.90
4518;DHT22;2271;49.464;11.070;2022-10-16T15:40:46;20.30;99.90
4518;DHT22;2271;49.464;11.070;2022-10-16T15:43:12;20.20;99.90
4518;DHT22;2271;49.464;11.070;2022-10-16T15:45:38;20.10;99.90
4518;DHT22;2271;49.464;11.070;2022-10-16T15:48:04;20.10;99.90
4518;DHT22;2271;49.464;11.070;2022-10-16T15:50:30;20.20;99.90
4518;DHT22;2271;49.464;11.070;2022-10-16T15:52:56;20.20;99.90
4518;DHT22;2271;49.464;11.070;2022-10-16T15:55:21;20.10;99.90
4518;DHT22;2271;49.464;11.070;2022-10-16T15:57:47;20.10;99.90
4518;DHT22;2271;49.464;11.070;2022-10-16T16:00:16;20.10;99.90
4518;DHT22;2271;49.464;11.070;2022-10-16T16:02:43;20.10;99.90
4518;DHT22;2271;49.464;11.070;2022-10-16T16:05:10;20.10;99.90
4518;DHT22;2271;49.464;11.070;2022-10-16T16:07:37;20.10;99.90
4518;DHT22;2271;49.464;11.070;2022-10-16T16:10:05;20.00;99.90
4518;DHT22;2271;49.464;11.070;2022-10-16T16:12:31;20.00;99.90
4518;DHT22;2271;49.464;11.070;2022-10-16T16:14:57;20.00;99.90
4518;DHT22;2271;49.464;11.070;2022-10-16T16:17:23;20.00;99.90
4518;DHT22;2271;49.464;11.070;2022-10-16T16:19:49;20.00;99.90
4518;DHT22;2271;49.464;11.070;2022-10-16T16:22:15;20.00;99.90
4518;DHT22;2271;49.464;11.070;2022-10-16T16:24:41;20.00;99.90
4518;DHT22;2271;49.464;11.070;2022-10-16T16:27:06;19.90;99.90
4518;DHT22;2271;49.464;11.070;2022-10-16T16:29:32;19.90;99.90
4518;DHT22;2271;49.464;11.070;2022-10-16T16:31:59;19.90;99.90
4518;DHT22;2271;49.464;11.070;2022-10-16T16:34:27;19.80;99.90
4518;DHT22;2271;49.464;11.070;2022-10-16T16:36:53;19.80;99.90
4518;DHT22;2271;49.464;11.070;2022-10-16T16:39:19;19.80;99.90
4518;DHT22;2271;49.464;11.070;2022-10-16T16:41:45;19.80;99.90
4518;DHT22;2271;49.464;11.070;2022-10-16T16:44:14;19.70;99.90
4518;DHT22;2271;49.464;11.070;2022-10-16T16:46:41;19.70;99.90
4518;DHT22;2271;49.464;11.070;2022-10-16T16:49:09;19.70;99.90
4518;DHT22;2271;49.464;11.070;2022-10-16T16:51:35;19.70;99.90
4518;DHT22;2271;49.464;11.070;2022-10-16T16:54:01;19.70;99.90
4518;DHT22;2271;49.464;11.070;2022-10-16T16:56:28;19.60;99.90
4518;DHT22;2271;49.464;11.070;2022-10-16T16:58:54;19.60;99.90
4518;DHT22;2271;49.464;11.070;2022-10-16T17:01:22;19.50;99.90
4518;DHT22;2271;49.464;11.070;2022-10-16T17:03:50;19.50;99.90
4518;DHT22;2271;49.464;11.070;2022-10-16T17:06:22;19.50;99.90
4518;DHT22;2271;49.464;11.070;2022-10-16T17:08:48;19.40;99.90
4518;DHT22;2271;49.464;11.070;2022-10-16T17:11:17;19.40;99.90
4518;DHT22;2271;49.464;11.070;2022-10-16T17:13:42;19.40;99.90
4518;DHT22;2271;49.464;11.070;2022-10-16T17:16:08;19.40;99.90
4518;DHT22;2271;49.464;11.070;2022-10-16T17:18:34;19.30;99.90
4518;DHT22;2271;49.464;11.070;2022-10-16T17:21:05;19.30;99.90
4518;DHT22;2271;49.464;11.070;2022-10-16T17:23:32;19.30;99.90
4518;DHT22;2271;49.464;11.070;2022-10-16T17:26:06;19.30;99.90
4518;DHT22;2271;49.464;11.070;2022-10-16T17:28:32;19.20;99.90
4518;DHT22;2271;49.464;11.070;2022-10-16T17:31:15;19.20;99.90
4518;DHT22;2271;49.464;11.070;2022-10-16T17:33:42;19.20;99.90
4518;DHT22;2271;49.464;11.070;2022-10-16T17:36:09;19.10;99.90
4518;DHT22;2271;49.464;11.070;2022-10-16T17:38:35;19.10;99.90
4518;DHT22;2271;49.464;11.070;2022-10-16T17:41:27;19.10;99.90
4518;DHT22;2271;49.464;11.070;2022-10-16T17:43:53;19.10;99.90
4518;DHT22;2271;49.464;11.070;2022-10-16T17:46:20;19.00;99.90
4518;DHT22;2271;49.464;11.070;2022-10-16T17:48:48;19.00;99.90
4518;DHT22;2271;49.464;11.070;2022-10-16T17:51:17;19.00;99.90
4518;DHT22;2271;49.464;11.070;2022-10-16T17:53:43;18.90;99.90
4518;DHT22;2271;49.464;11.070;2022-10-16T17:56:13;18.90;99.90
4518;DHT22;2271;49.464;11.070;2022-10-16T17:58:39;18.90;99.90
4518;DHT22;2271;49.464;11.070;2022-10-16T18:03:38;18.90;99.90
4518;DHT22;2271;49.464;11.070;2022-10-16T18:06:03;18.80;99.90
4518;DHT22;2271;49.464;11.070;2022-10-16T18:08:29;18.80;99.90
4518;DHT22;2271;49.464;11.070;2022-10-16T18:10:55;18.80;99.90
4518;DHT22;2271;49.464;11.070;2022-10-16T18:13:21;18.70;99.90
4518;DHT22;2271;49.464;11.070;2022-10-16T18:15:46;18.70;99.90